Time;durP1;ratioP1;P1;durP2;ratioP2;P2;SDS_P1;SDS_P2;PMS_P1;PMS_P2;Temp;Humidity;BMP_temperature;BMP_pressure;BME280_temperature;BME280_humidity;BME280_pressure;Samples;Min_cycle;Max_cycle;Signal;HPM_P1;HPM_P2
2022/07/31 00:00:16;;;;;;;11.30;10.30;;;;;;;20.96;77.68;94736.53;5056873;28;20213;-67
2022/07/31 00:02:48;;;;;;;12.13;10.93;;;;;;;21.00;76.96;94728.84;5057329;28;20209;-67
2022/07/31 00:05:15;;;;;;;10.90;10.00;;;;;;;20.97;76.13;94732.50;5057674;28;20185;-67
2022/07/31 00:07:43;;;;;;;11.38;10.48;;;;;;;20.98;76.00;94719.28;5057396;28;20193;-67
2022/07/31 00:10:12;;;;;;;11.25;10.30;;;;;;;20.94;75.66;94727.75;5056560;28;20208;-67
2022/07/31 00:12:38;;;;;;;11.88;10.88;;;;;;;20.88;77.09;94723.88;5057740;28;20216;-67
2022/07/31 00:15:08;;;;;;;11.70;10.75;;;;;;;20.90;77.40;94724.22;5057096;28;20216;-67
2022/07/31 00:17:37;;;;;;;11.73;10.68;;;;;;;20.92;77.25;94724.59;5058009;28;20200;-67
2022/07/31 00:20:12;;;;;;;11.38;10.32;;;;;;;20.85;78.02;94739.53;5057077;28;20225;-67
2022/07/31 00:22:40;;;;;;;11.95;10.85;;;;;;;20.88;78.62;94741.47;5056554;28;20194;-67
2022/07/31 00:25:08;;;;;;;11.82;10.82;;;;;;;20.88;77.80;94746.31;5057050;28;20193;-68
2022/07/31 00:27:36;;;;;;;11.90;10.90;;;;;;;20.85;78.18;94745.13;5056011;28;20190;-68
2022/07/31 00:30:04;;;;;;;12.07;11.07;;;;;;;20.85;78.12;94747.16;5056633;28;20197;-68
2022/07/31 00:32:32;;;;;;;11.88;10.77;;;;;;;20.88;76.70;94744.28;5056025;28;20327;-68
2022/07/31 00:35:00;;;;;;;11.77;10.73;;;;;;;20.89;76.89;94743.06;5056158;28;20214;-68
2022/07/31 00:37:30;;;;;;;11.77;10.68;;;;;;;20.90;76.71;94747.44;5057065;28;20189;-68
2022/07/31 00:40:00;;;;;;;11.80;10.80;;;;;;;20.89;77.42;94753.47;5056624;28;20194;-68
2022/07/31 00:42:30;;;;;;;11.52;10.63;;;;;;;20.88;78.09;94752.69;5056183;28;20200;-68
2022/07/31 00:44:58;;;;;;;11.48;10.57;;;;;;;20.86;78.03;94754.34;5056991;28;20186;-68
2022/07/31 00:47:30;;;;;;;11.55;10.55;;;;;;;20.86;78.41;94752.31;5055864;28;20206;-68
2022/07/31 00:49:58;;;;;;;11.85;10.93;;;;;;;20.83;77.95;94755.19;5056961;28;20264;-68
2022/07/31 00:52:25;;;;;;;11.20;10.20;;;;;;;20.80;77.43;94745.59;5055646;28;20224;-67
2022/07/31 00:54:56;;;;;;;11.10;10.10;;;;;;;20.76;76.75;94750.50;5055503;28;20641;-67
2022/07/31 00:57:24;;;;;;;9.50;8.80;;;;;;;20.77;77.15;94748.47;5056665;28;20188;-68
2022/07/31 00:59:52;;;;;;;10.85;9.85;;;;;;;20.75;76.94;94748.91;5055431;28;20210;-67
2022/07/31 01:02:20;;;;;;;10.70;9.80;;;;;;;20.72;76.52;94746.97;5056643;28;20193;-67
2022/07/31 01:04:49;;;;;;;9.85;9.05;;;;;;;20.76;75.32;94760.91;5056607;28;20259;-67
2022/07/31 01:07:16;;;;;;;10.23;9.43;;;;;;;20.70;76.00;94759.81;5056616;28;20190;-67
2022/07/31 01:09:46;;;;;;;10.60;9.50;;;;;;;20.71;76.11;94767.81;5055567;28;20204;-67
2022/07/31 01:12:21;;;;;;;11.20;10.23;;;;;;;20.71;75.01;94770.59;5055571;28;20267;-67
2022/07/31 01:14:53;;;;;;;10.80;9.80;;;;;;;20.68;74.46;94761.03;5056292;28;20214;-66
2022/07/31 01:17:22;;;;;;;10.38;9.38;;;;;;;20.65;75.36;94753.47;5055606;28;20194;-66
2022/07/31 01:19:53;;;;;;;11.02;10.02;;;;;;;20.61;75.06;94751.94;5056254;28;20186;-66
2022/07/31 01:22:44;;;;;;;11.10;10.00;;;;;;;20.60;74.97;94755.97;5056234;28;20197;-66
2022/07/31 01:25:18;;;;;;;11.02;10.07;;;;;;;20.57;75.77;94754.81;5055662;28;20182;-66
2022/07/31 01:27:59;;;;;;;11.25;10.10;;;;;;;20.56;77.06;94758.06;5055366;28;20202;-65
2022/07/31 01:30:30;;;;;;;10.63;9.63;;;;;;;20.54;76.60;94761.25;5055986;28;20185;-66
2022/07/31 01:33:15;;;;;;;10.15;9.35;;;;;;;20.54;76.87;94758.47;5055732;28;20246;-66
2022/07/31 01:35:48;;;;;;;12.75;10.35;;;;;;;20.51;76.80;94761.31;5054781;28;20221;-66
2022/07/31 01:38:17;;;;;;;11.20;10.18;;;;;;;20.49;76.12;94766.53;5056019;28;20194;-66
2022/07/31 01:40:48;;;;;;;11.52;10.30;;;;;;;20.43;75.33;94757.81;5055266;28;20208;-67
2022/07/31 01:43:22;;;;;;;11.35;10.30;;;;;;;20.39;75.59;94757.88;5055119;28;20205;-66
2022/07/31 01:45:55;;;;;;;11.57;10.50;;;;;;;20.34;75.52;94746.38;5055044;28;20576;-66
2022/07/31 01:48:23;;;;;;;10.80;9.80;;;;;;;20.29;75.79;94760.84;5055911;28;20190;-66
2022/07/31 01:50:52;;;;;;;10.73;9.63;;;;;;;20.25;75.22;94758.09;5054848;28;20204;-66
2022/07/31 01:53:22;;;;;;;10.88;9.75;;;;;;;20.22;75.45;94752.53;5055677;28;20224;-66
2022/07/31 01:55:51;;;;;;;10.63;9.63;;;;;;;20.18;75.75;94756.19;5055582;28;20216;-66
2022/07/31 01:58:20;;;;;;;11.38;10.27;;;;;;;20.13;76.48;94759.47;5054845;28;20197;-66
2022/07/31 02:00:48;;;;;;;11.32;10.02;;;;;;;20.11;76.84;94764.69;5055466;28;20202;-66
2022/07/31 02:03:21;;;;;;;10.73;9.73;;;;;;;20.05;77.35;94769.19;5054618;28;20197;-65
2022/07/31 02:05:50;;;;;;;10.30;9.30;;;;;;;20.04;76.97;94761.19;5054666;28;20194;-65
2022/07/31 02:08:18;;;;;;;10.52;9.38;;;;;;;20.07;77.30;94760.34;5054598;28;20625;-65
2022/07/31 02:10:45;;;;;;;9.55;8.65;;;;;;;20.04;78.10;94766.78;5054435;28;20208;-65
2022/07/31 02:13:14;;;;;;;10.98;9.93;;;;;;;20.06;78.36;94762.38;5055674;28;20217;-65
2022/07/31 02:15:42;;;;;;;10.20;9.20;;;;;;;20.07;76.80;94765.94;5054862;28;20219;-65
2022/07/31 02:18:11;;;;;;;9.38;8.68;;;;;;;20.05;76.24;94768.41;5055215;28;20200;-66
2022/07/31 02:20:41;;;;;;;8.77;8.10;;;;;;;19.95;75.90;94768.13;5054390;28;20193;-66
2022/07/31 02:23:10;;;;;;;9.52;8.73;;;;;;;19.95;76.72;94767.31;5054395;28;20208;-66
2022/07/31 02:25:42;;;;;;;9.18;8.38;;;;;;;19.90;76.54;94765.00;5054524;28;20193;-66
2022/07/31 02:28:12;;;;;;;9.27;8.52;;;;;;;19.86;75.97;94773.44;5055185;28;20601;-66
2022/07/31 02:30:43;;;;;;;9.93;9.10;;;;;;;19.87;75.43;94774.25;5055126;28;20178;-66
2022/07/31 02:33:14;;;;;;;10.93;9.82;;;;;;;19.84;76.17;94780.66;5055037;28;20303;-66
2022/07/31 02:35:45;;;;;;;11.50;10.38;;;;;;;19.80;76.53;94777.91;5054035;28;20209;-66
2022/07/31 02:38:14;;;;;;;13.13;11.73;;;;;;;19.78;76.95;94776.75;5054097;28;20194;-66
2022/07/31 02:40:43;;;;;;;11.93;10.88;;;;;;;19.75;77.14;94772.78;5055167;28;20247;-66
2022/07/31 02:43:11;;;;;;;12.93;11.73;;;;;;;19.75;77.78;94777.56;5055046;28;20186;-66
2022/07/31 02:45:39;;;;;;;12.90;11.60;;;;;;;19.71;77.22;94775.63;5054968;28;20181;-66
2022/07/31 02:48:08;;;;;;;13.73;12.48;;;;;;;19.71;77.77;94780.41;5054591;28;20190;-66
2022/07/31 02:50:36;;;;;;;14.48;13.18;;;;;;;19.70;77.30;94779.63;5054990;28;20268;-67
2022/07/31 02:53:10;;;;;;;12.93;11.75;;;;;;;19.71;77.53;94774.81;5053766;28;20206;-66
2022/07/31 02:55:38;;;;;;;13.55;12.10;;;;;;;19.68;77.53;94773.69;5054735;28;20220;-66
2022/07/31 02:58:07;;;;;;;13.77;12.38;;;;;;;19.63;78.04;94779.72;5053936;28;20205;-66
2022/07/31 03:00:38;;;;;;;13.48;12.27;;;;;;;19.63;78.07;94776.13;5055027;28;20208;-66
2022/07/31 03:03:05;;;;;;;13.82;12.57;;;;;;;19.64;78.40;94775.69;5054102;28;20212;-66
2022/07/31 03:05:33;;;;;;;13.82;12.45;;;;;;;19.65;78.45;94773.72;5053922;28;20197;-66
2022/07/31 03:08:01;;;;;;;13.65;12.45;;;;;;;19.66;78.03;94772.50;5054571;28;20189;-66
2022/07/31 03:10:30;;;;;;;13.57;12.32;;;;;;;19.67;78.08;94779.69;5054700;28;20201;-66
2022/07/31 03:12:57;;;;;;;12.80;11.60;;;;;;;19.63;78.25;94781.72;5053811;28;20213;-66
2022/07/31 03:15:27;;;;;;;13.18;11.88;;;;;;;19.63;78.26;94779.72;5054621;28;20206;-66
2022/07/31 03:17:55;;;;;;;11.95;10.95;;;;;;;19.61;78.06;94786.94;5054260;28;20202;-65
2022/07/31 03:20:23;;;;;;;11.63;10.63;;;;;;;19.63;77.68;94788.13;5053585;28;20202;-66
2022/07/31 03:22:51;;;;;;;11.27;10.27;;;;;;;19.65;77.26;94782.91;5054351;28;20197;-65
2022/07/31 03:25:18;;;;;;;10.98;10.00;;;;;;;19.64;78.34;94791.69;5054050;28;20200;-66
2022/07/31 03:27:48;;;;;;;10.82;9.82;;;;;;;19.66;77.97;94795.66;5053610;28;20198;-65
2022/07/31 03:30:18;;;;;;;10.95;9.95;;;;;;;19.66;77.65;94789.28;5054661;28;20182;-65
2022/07/31 03:32:45;;;;;;;11.00;10.02;;;;;;;19.64;78.16;94791.69;5053315;28;20307;-65
2022/07/31 03:35:16;;;;;;;10.48;9.52;;;;;;;19.64;77.87;94800.09;5053496;28;20210;-65
2022/07/31 03:37:45;;;;;;;10.45;9.50;;;;;;;19.59;77.97;94803.31;5053613;28;20190;-66
2022/07/31 03:40:13;;;;;;;10.00;9.00;;;;;;;19.59;77.02;94806.91;5053806;28;20205;-65
2022/07/31 03:42:44;;;;;;;9.88;8.93;;;;;;;19.56;77.02;94813.34;5053791;28;20201;-65
2022/07/31 03:45:14;;;;;;;9.05;8.15;;;;;;;19.50;76.17;94809.44;5054375;28;20190;-66
2022/07/31 03:47:42;;;;;;;9.52;7.97;;;;;;;19.46;77.08;94819.84;5054013;28;20206;-66
2022/07/31 03:50:10;;;;;;;8.60;7.80;;;;;;;19.45;76.95;94809.88;5057008;28;20204;-66
2022/07/31 03:52:38;;;;;;;8.20;7.53;;;;;;;19.45;76.32;94807.88;5057778;28;20189;-66
2022/07/31 03:55:07;;;;;;;8.02;7.43;;;;;;;19.44;76.50;94817.47;5057185;28;20649;-66
2022/07/31 03:57:38;;;;;;;8.73;7.93;;;;;;;19.44;76.41;94822.28;5057668;28;20316;-66
2022/07/31 04:00:09;;;;;;;7.80;7.10;;;;;;;19.48;75.79;94823.03;5057973;28;20616;-66
2022/07/31 04:02:40;;;;;;;7.63;7.03;;;;;;;19.48;75.01;94815.44;5058066;28;20251;-66
2022/07/31 04:05:09;;;;;;;8.05;7.45;;;;;;;19.52;75.20;94815.38;5057468;28;20182;-66
2022/07/31 04:07:37;;;;;;;8.75;7.97;;;;;;;19.53;75.04;94825.34;5057532;28;20190;-66
2022/07/31 04:10:06;;;;;;;9.13;8.32;;;;;;;19.51;75.11;94827.78;5057304;28;20198;-66
2022/07/31 04:12:35;;;;;;;9.15;8.35;;;;;;;19.52;75.44;94826.56;5040242;28;20201;-68
2022/07/31 04:15:02;;;;;;;9.68;8.68;;;;;;;19.55;75.64;94828.53;5056799;28;20229;-67
2022/07/31 04:17:30;;;;;;;10.32;9.32;;;;;;;19.59;75.59;94825.72;5056542;28;20186;-67
2022/07/31 04:20:04;;;;;;;10.48;9.52;;;;;;;19.63;76.17;94829.28;5056676;28;20208;-67
2022/07/31 04:22:30;;;;;;;10.20;9.30;;;;;;;19.69;75.28;94819.22;5057620;28;20201;-67
2022/07/31 04:24:59;;;;;;;9.43;8.63;;;;;;;19.82;74.90;94814.66;5056743;28;20209;-67
2022/07/31 04:27:26;;;;;;;9.85;8.95;;;;;;;19.94;74.30;94808.53;5056561;28;20275;-67
2022/07/31 04:29:56;;;;;;;9.95;9.05;;;;;;;19.94;74.19;94810.53;5056362;28;20210;-67
2022/07/31 04:32:24;;;;;;;9.43;8.63;;;;;;;19.90;74.17;94804.97;5056147;28;20261;-66
2022/07/31 04:34:52;;;;;;;9.00;8.20;;;;;;;19.92;74.16;94808.13;5057171;28;20510;-67
2022/07/31 04:37:22;;;;;;;9.98;9.07;;;;;;;19.91;74.50;94806.56;5056249;28;20251;-67
2022/07/31 04:39:52;;;;;;;9.73;8.82;;;;;;;19.90;74.81;94806.97;5055892;28;20204;-67
2022/07/31 04:42:23;;;;;;;9.18;8.38;;;;;;;19.91;74.35;94803.75;5055866;28;20288;-67
2022/07/31 04:44:51;;;;;;;8.93;8.15;;;;;;;19.94;74.18;94802.91;5056298;28;20212;-67
2022/07/31 04:47:18;;;;;;;9.82;8.98;;;;;;;19.97;74.70;94798.47;5056169;28;20240;-67
2022/07/31 04:49:46;;;;;;;8.93;8.13;;;;;;;19.99;74.06;94807.25;5057025;28;20186;-67
2022/07/31 04:52:13;;;;;;;9.23;8.43;;;;;;;20.00;74.00;94803.22;5055880;28;20213;-67
2022/07/31 04:54:42;;;;;;;9.48;8.68;;;;;;;20.01;74.22;94813.22;5056041;28;20197;-67
2022/07/31 04:57:10;;;;;;;8.82;8.10;;;;;;;20.02;74.26;94805.63;5056590;28;20202;-67
2022/07/31 04:59:38;;;;;;;9.20;8.40;;;;;;;20.05;73.78;94811.19;5055324;28;20602;-67
2022/07/31 05:02:06;;;;;;;8.90;8.18;;;;;;;20.05;73.67;94816.00;5055592;28;20532;-67
2022/07/31 05:04:34;;;;;;;9.02;8.32;;;;;;;20.16;73.34;94823.03;5056858;28;20182;-67
2022/07/31 05:07:00;;;;;;;8.80;8.00;;;;;;;20.23;73.22;94821.34;5056911;28;20676;-67
2022/07/31 05:09:32;;;;;;;8.80;8.10;;;;;;;20.26;73.02;94820.47;5055643;28;20193;-66
2022/07/31 05:12:02;;;;;;;8.85;8.05;;;;;;;20.27;73.40;94822.88;5056342;28;20209;-67
2022/07/31 05:14:31;;;;;;;8.05;7.45;;;;;;;20.31;72.90;94828.41;5055618;28;20209;-67
2022/07/31 05:16:59;;;;;;;8.50;7.80;;;;;;;20.34;72.33;94827.59;5055432;28;20592;-67
2022/07/31 05:19:28;;;;;;;8.20;7.60;;;;;;;20.33;72.20;94823.97;5056380;28;20196;-66
2022/07/31 05:21:58;;;;;;;7.90;7.20;;;;;;;20.31;72.74;94820.81;5055408;28;20194;-66
2022/07/31 05:24:26;;;;;;;7.47;6.88;;;;;;;20.29;72.35;94816.84;5055743;28;20213;-66
2022/07/31 05:26:54;;;;;;;7.60;7.00;;;;;;;20.25;72.09;94811.28;5055900;28;20178;-66
2022/07/31 05:29:23;;;;;;;7.50;6.90;;;;;;;20.23;72.21;94815.75;5055881;28;20193;-66
2022/07/31 05:31:51;;;;;;;7.20;6.57;;;;;;;20.18;72.27;94819.78;5056068;28;20182;-66
2022/07/31 05:34:18;;;;;;;7.35;6.75;;;;;;;20.17;72.29;94823.81;5055634;28;20280;-66
2022/07/31 05:36:46;;;;;;;7.78;7.18;;;;;;;20.15;72.74;94812.22;5055358;28;20213;-66
2022/07/31 05:39:16;;;;;;;8.02;7.43;;;;;;;20.19;72.54;94822.19;5054866;28;20201;-66
2022/07/31 05:41:44;;;;;;;8.35;7.68;;;;;;;20.23;72.00;94813.72;5055777;28;20190;-66
2022/07/31 05:44:13;;;;;;;7.80;7.20;;;;;;;20.28;71.35;94818.84;5055056;28;20197;-66
2022/07/31 05:46:43;;;;;;;8.52;7.78;;;;;;;20.33;71.48;94820.38;5055428;28;20522;-66
2022/07/31 05:49:11;;;;;;;7.40;6.80;;;;;;;20.39;72.01;94821.50;5055117;28;20202;-66
2022/07/31 05:51:42;;;;;;;8.27;7.53;;;;;;;20.44;72.72;94826.63;5055280;28;20190;-67
2022/07/31 05:54:10;;;;;;;8.23;7.53;;;;;;;20.46;72.80;94824.19;5055677;28;20190;-66
2022/07/31 05:56:37;;;;;;;8.95;8.20;;;;;;;20.49;71.61;94828.97;5054694;28;20222;-66
2022/07/31 05:59:08;;;;;;;8.63;7.93;;;;;;;20.48;70.99;94823.75;5055541;28;20197;-66
2022/07/31 06:01:40;;;;;;;9.65;8.75;;;;;;;20.51;70.82;94823.75;5054639;28;20212;-66
2022/07/31 06:04:13;;;;;;;8.38;7.70;;;;;;;20.58;70.83;94820.81;5054560;28;20286;-66
2022/07/31 06:06:41;;;;;;;8.85;8.05;;;;;;;20.65;70.91;94820.72;5055748;28;20198;-65
2022/07/31 06:09:09;;;;;;;8.65;7.85;;;;;;;20.68;70.24;94817.06;5054628;28;20198;-66
2022/07/31 06:11:37;;;;;;;9.63;8.82;;;;;;;20.67;69.72;94809.09;5054550;28;20193;-66
2022/07/31 06:14:05;;;;;;;9.13;8.32;;;;;;;20.68;69.79;94813.47;5055047;28;20200;-66
2022/07/31 06:16:33;;;;;;;9.93;8.95;;;;;;;20.72;70.60;94817.00;5055040;28;20659;-66
2022/07/31 06:19:03;;;;;;;9.30;8.50;;;;;;;20.80;70.34;94812.09;5054214;28;20182;-66
2022/07/31 06:21:34;;;;;;;10.95;9.95;;;;;;;20.85;70.19;94820.03;5053959;28;20221;-66
2022/07/31 06:24:01;;;;;;;10.23;9.32;;;;;;;20.88;69.75;94817.16;5055335;28;20259;-69
2022/07/31 06:26:27;;;;;;;10.35;9.35;;;;;;;20.96;69.51;94815.03;5055368;28;20275;-66
2022/07/31 06:28:56;;;;;;;10.25;9.35;;;;;;;21.02;69.39;94820.94;5055234;28;20259;-67
2022/07/31 06:31:25;;;;;;;10.18;9.27;;;;;;;21.06;68.86;94813.25;5054873;28;20255;-66
2022/07/31 06:33:53;;;;;;;10.52;9.52;;;;;;;21.10;69.36;94811.19;5054567;28;20257;-66
2022/07/31 06:36:21;;;;;;;10.05;9.10;;;;;;;21.10;69.20;94814.78;5054278;28;20205;-66
2022/07/31 06:38:50;;;;;;;10.68;9.70;;;;;;;21.14;69.28;94811.91;5054747;28;20190;-66
2022/07/31 06:44:03;;;;;;;12.30;11.10;;;;;;;21.22;69.84;94809.78;5054539;28;20202;-66
2022/07/31 06:46:31;;;;;;;11.13;10.02;;;;;;;21.27;69.18;94812.06;5054279;28;20193;-66
2022/07/31 06:48:57;;;;;;;11.65;10.55;;;;;;;21.33;69.59;94807.56;5055128;28;20185;-65
2022/07/31 06:51:25;;;;;;;11.55;10.45;;;;;;;21.35;69.45;94811.56;5054055;28;20201;-65
2022/07/31 06:53:55;;;;;;;10.82;9.80;;;;;;;21.47;68.50;94809.34;5054000;28;20200;-65
2022/07/31 06:56:25;;;;;;;11.68;10.48;;;;;;;21.50;69.30;94816.91;5054627;28;20228;-65
2022/07/31 06:58:53;;;;;;;11.75;10.63;;;;;;;21.53;69.73;94816.03;5054242;28;20202;-65
2022/07/31 07:01:22;;;;;;;12.82;11.60;;;;;;;21.54;69.73;94821.22;5053915;28;20212;-65
2022/07/31 07:03:50;;;;;;;12.32;11.23;;;;;;;21.55;69.88;94817.19;5053938;28;20205;-65
2022/07/31 07:06:18;;;;;;;13.13;11.82;;;;;;;21.58;69.29;94824.75;5054894;28;20213;-65
2022/07/31 07:08:48;;;;;;;13.07;11.77;;;;;;;21.59;68.52;94828.34;5053938;28;20189;-65
2022/07/31 07:11:21;;;;;;;14.70;12.15;;;;;;;21.56;68.51;94832.00;5054490;28;20189;-65
2022/07/31 07:13:49;;;;;;;12.10;11.00;;;;;;;21.55;68.73;94836.84;5054489;28;20534;-65
2022/07/31 07:16:16;;;;;;;12.90;11.77;;;;;;;21.55;69.09;94833.25;5054261;28;20214;-65
2022/07/31 07:18:45;;;;;;;13.13;11.93;;;;;;;21.57;69.00;94833.63;5054678;28;20186;-65
2022/07/31 07:21:13;;;;;;;13.35;12.13;;;;;;;21.57;68.89;94833.63;5053724;28;20208;-65
2022/07/31 07:23:41;;;;;;;12.73;11.57;;;;;;;21.66;69.14;94838.66;5055483;28;20186;-65
2022/07/31 07:26:09;;;;;;;13.15;11.95;;;;;;;21.68;68.85;94834.19;5058410;28;20201;-65
2022/07/31 07:28:39;;;;;;;13.52;12.32;;;;;;;21.68;69.02;94841.81;5058008;28;20201;-65
2022/07/31 07:31:07;;;;;;;14.57;13.18;;;;;;;21.68;68.83;94836.19;5058451;28;20198;-65
2022/07/31 07:33:35;;;;;;;15.27;13.77;;;;;;;21.63;69.12;94840.28;5058348;28;20320;-65
2022/07/31 07:36:01;;;;;;;14.77;13.18;;;;;;;21.54;69.14;94840.06;5057610;28;20221;-65
2022/07/31 07:38:28;;;;;;;14.45;13.05;;;;;;;21.59;69.65;94840.34;5057985;28;20225;-67
2022/07/31 07:40:55;;;;;;;14.40;12.90;;;;;;;21.65;69.40;94837.06;5057313;28;20205;-65
2022/07/31 07:43:23;;;;;;;11.98;10.77;;;;;;;21.63;69.22;94827.03;5057139;28;20205;-66
2022/07/31 07:45:57;;;;;;;12.27;11.00;;;;;;;21.67;69.52;94826.19;5057092;28;20186;-65
2022/07/31 07:48:24;;;;;;;11.02;10.02;;;;;;;21.74;69.24;94831.66;5057312;28;20691;-65
2022/07/31 07:50:52;;;;;;;10.63;9.52;;;;;;;21.74;68.75;94829.66;5057370;28;20193;-65
2022/07/31 07:53:20;;;;;;;9.63;8.63;;;;;;;21.70;68.83;94828.94;5058140;28;20197;-65
2022/07/31 07:55:48;;;;;;;9.82;8.82;;;;;;;21.69;68.84;94837.78;5057886;28;20216;-65
2022/07/31 07:58:16;;;;;;;9.60;8.68;;;;;;;21.67;68.72;94838.19;5058008;28;20204;-65
2022/07/31 08:00:44;;;;;;;9.60;8.70;;;;;;;21.65;69.08;94829.44;5057791;28;20201;-65
2022/07/31 08:03:15;;;;;;;8.50;7.78;;;;;;;21.69;68.56;94834.97;5057531;28;20186;-65
2022/07/31 08:05:43;;;;;;;10.15;9.25;;;;;;;21.75;69.23;94833.25;5056780;28;20193;-65
2022/07/31 08:08:12;;;;;;;9.00;8.20;;;;;;;21.88;68.69;94834.19;5058009;28;20190;-65
2022/07/31 08:10:39;;;;;;;9.70;8.80;;;;;;;22.01;68.15;94837.16;5057606;28;20639;-65
2022/07/31 08:13:07;;;;;;;10.05;9.15;;;;;;;22.09;67.47;94847.78;5057323;28;20575;-65
2022/07/31 08:15:34;;;;;;;8.68;7.88;;;;;;;22.02;67.26;94850.75;5057183;28;20621;-65
2022/07/31 08:18:02;;;;;;;8.10;7.32;;;;;;;21.96;67.52;94855.28;5057677;28;20201;-65
2022/07/31 08:20:31;;;;;;;8.43;7.63;;;;;;;21.88;67.38;94848.22;5057468;28;20190;-66
2022/07/31 08:22:58;;;;;;;8.30;7.60;;;;;;;21.84;67.09;94848.28;5056461;28;20205;-65
2022/07/31 08:25:25;;;;;;;9.00;8.10;;;;;;;21.80;67.69;94853.19;5057207;28;20228;-65
2022/07/31 08:27:53;;;;;;;8.60;7.80;;;;;;;21.81;68.54;94848.38;5057542;28;20189;-65
2022/07/31 08:30:21;;;;;;;9.40;8.50;;;;;;;21.81;68.41;94846.34;5056765;28;20260;-65
2022/07/31 08:32:50;;;;;;;9.88;8.98;;;;;;;21.78;68.29;94858.44;5055985;28;20237;-65
2022/07/31 08:35:17;;;;;;;8.73;7.93;;;;;;;21.77;68.33;94842.81;5055104;28;20205;-65
2022/07/31 08:37:46;;;;;;;8.90;8.10;;;;;;;21.82;68.08;94845.16;5056005;28;20591;-65
2022/07/31 08:40:14;;;;;;;9.93;8.98;;;;;;;21.93;68.33;94846.91;5056756;28;20228;-65
2022/07/31 08:42:42;;;;;;;9.43;8.52;;;;;;;21.97;67.90;94847.63;5057000;28;20189;-65
2022/07/31 08:45:09;;;;;;;9.50;8.70;;;;;;;21.90;67.38;94851.41;5056068;28;20200;-66
2022/07/31 08:47:37;;;;;;;9.63;8.73;;;;;;;21.88;67.50;94851.03;5055832;28;20198;-66
2022/07/31 08:50:06;;;;;;;10.20;9.20;;;;;;;21.93;67.42;94846.91;5056573;28;20182;-66
2022/07/31 08:52:35;;;;;;;9.75;8.85;;;;;;;22.07;67.90;94847.41;5056308;28;20275;-65
2022/07/31 08:55:08;;;;;;;10.07;9.18;;;;;;;22.18;67.10;94850.03;5056243;28;20296;-65
2022/07/31 08:57:36;;;;;;;8.55;7.82;;;;;;;22.25;66.33;94840.66;5056450;28;20209;-65
2022/07/31 09:00:06;;;;;;;10.07;9.00;;;;;;;22.25;65.60;94849.09;5056256;28;20197;-65
2022/07/31 09:02:34;;;;;;;9.45;8.63;;;;;;;22.26;65.72;94847.88;5056591;28;20194;-66
2022/07/31 09:05:00;;;;;;;10.60;9.70;;;;;;;22.30;65.98;94851.41;5055520;28;20202;-66
2022/07/31 09:07:27;;;;;;;10.65;9.75;;;;;;;22.33;65.40;94844.91;5055737;28;20201;-66
2022/07/31 09:09:54;;;;;;;10.13;9.23;;;;;;;22.34;65.54;94846.50;5056319;28;20201;-66
2022/07/31 09:12:32;;;;;;;10.13;9.23;;;;;;;22.33;65.27;94845.72;5055968;28;20194;-65
2022/07/31 09:15:00;;;;;;;11.60;10.50;;;;;;;22.37;65.88;94854.06;5056478;28;20190;-66
2022/07/31 09:17:35;;;;;;;13.10;11.90;;;;;;;22.29;65.35;94849.81;5055950;28;20202;-66
2022/07/31 09:20:05;;;;;;;14.27;12.88;;;;;;;22.30;65.97;94846.59;5056303;28;20199;-65
2022/07/31 09:22:35;;;;;;;14.18;12.80;;;;;;;22.33;65.40;94854.16;5055179;28;20193;-65
2022/07/31 09:25:12;;;;;;;13.68;12.38;;;;;;;22.40;65.27;94860.81;5056416;28;20277;-65
2022/07/31 09:27:41;;;;;;;13.73;12.40;;;;;;;22.39;63.81;94853.63;5056082;28;20241;-65
2022/07/31 09:30:09;;;;;;;14.75;13.30;;;;;;;22.27;62.89;94852.28;5055500;28;20197;-65
2022/07/31 09:32:36;;;;;;;14.38;12.98;;;;;;;22.24;63.74;94853.94;5055016;28;20234;-65
2022/07/31 09:35:10;;;;;;;14.40;13.02;;;;;;;22.27;63.60;94846.66;5055138;28;20201;-66
2022/07/31 09:37:40;;;;;;;13.60;12.30;;;;;;;22.19;62.12;94842.44;5055529;28;20574;-65
2022/07/31 09:40:09;;;;;;;18.02;16.42;;;;;;;22.17;62.65;94840.03;5055114;28;20236;-65
2022/07/31 09:42:38;;;;;;;13.88;12.68;;;;;;;22.26;62.41;94833.81;5055673;28;20510;-65
2022/07/31 09:45:19;;;;;;;14.75;12.27;;;;;;;22.19;61.03;94834.78;5054653;28;20190;-65
2022/07/31 09:47:48;;;;;;;14.23;12.93;;;;;;;22.16;61.53;94844.06;5054548;28;20197;-66
2022/07/31 09:50:23;;;;;;;13.60;12.40;;;;;;;22.08;61.73;94837.78;5052711;28;20210;-69
2022/07/31 09:52:59;;;;;;;12.93;11.80;;;;;;;22.01;62.08;94829.50;5055089;28;20200;-68
2022/07/31 09:55:26;;;;;;;13.77;12.50;;;;;;;22.03;61.90;94831.88;5055751;28;20202;-67
2022/07/31 09:57:57;;;;;;;14.05;12.75;;;;;;;22.07;61.93;94841.81;5055667;28;20206;-67
2022/07/31 10:00:27;;;;;;;13.93;12.63;;;;;;;22.09;61.79;94825.31;5055554;28;20197;-67
2022/07/31 10:02:58;;;;;;;14.68;13.27;;;;;;;22.13;61.64;94824.47;5055744;28;20197;-67
2022/07/31 10:05:28;;;;;;;14.38;12.98;;;;;;;22.26;61.93;94828.19;5055169;28;20629;-67
2022/07/31 10:07:58;;;;;;;14.35;12.95;;;;;;;22.45;61.88;94818.16;5055354;28;20194;-67
2022/07/31 10:10:28;;;;;;;15.38;13.93;;;;;;;22.69;62.05;94811.16;5054962;28;20525;-67
2022/07/31 10:12:56;;;;;;;15.38;13.95;;;;;;;22.95;60.10;94809.38;5055451;28;20225;-67
2022/07/31 10:15:26;;;;;;;15.63;14.20;;;;;;;23.12;59.16;94807.31;5054091;28;20197;-67
2022/07/31 10:17:55;;;;;;;14.18;12.88;;;;;;;23.17;58.21;94811.66;5054445;28;20225;-67
2022/07/31 10:20:24;;;;;;;13.63;12.30;;;;;;;23.23;56.44;94812.69;5054721;28;20210;-68
2022/07/31 10:22:57;;;;;;;13.63;12.45;;;;;;;23.37;57.70;94805.91;5054162;28;20205;-67
2022/07/31 10:25:27;;;;;;;14.73;13.35;;;;;;;23.50;57.04;94807.53;5054171;28;20200;-67
2022/07/31 10:27:56;;;;;;;13.93;12.65;;;;;;;23.60;56.82;94793.59;5054696;28;20197;-67
2022/07/31 10:30:29;;;;;;;13.43;12.23;;;;;;;23.74;56.97;94791.22;5055219;28;20198;-67
2022/07/31 10:32:57;;;;;;;13.27;12.07;;;;;;;23.90;56.91;94783.97;5054874;28;20244;-67
2022/07/31 10:35:26;;;;;;;12.35;11.15;;;;;;;24.03;54.99;94785.53;5054254;28;20243;-67
2022/07/31 10:38:01;;;;;;;12.25;11.15;;;;;;;24.12;54.53;94779.28;5054716;28;20225;-67
2022/07/31 10:40:33;;;;;;;13.05;11.85;;;;;;;24.30;56.43;94780.75;5054151;28;20208;-67
2022/07/31 10:43:19;;;;;;;13.30;12.00;;;;;;;24.48;56.03;94772.56;5053966;28;20197;-67
2022/07/31 10:45:51;;;;;;;13.27;12.07;;;;;;;24.62;55.22;94774.94;5053855;28;20193;-67
2022/07/31 10:48:19;;;;;;;13.30;12.07;;;;;;;24.63;53.02;94781.38;5054053;28;20194;-68
2022/07/31 10:50:48;;;;;;;13.15;12.05;;;;;;;24.52;52.92;94775.28;5053920;28;20201;-66
2022/07/31 10:53:17;;;;;;;13.18;12.05;;;;;;;24.57;54.38;94767.03;5054088;28;20197;-67
2022/07/31 10:55:48;;;;;;;13.13;12.02;;;;;;;24.65;54.97;94767.59;5054240;28;20293;-67
2022/07/31 10:58:18;;;;;;;13.45;12.25;;;;;;;24.80;54.42;94774.38;5054333;28;20229;-67
2022/07/31 11:00:46;;;;;;;11.35;10.35;;;;;;;24.87;51.09;94760.00;5058937;28;20198;-66
2022/07/31 11:03:21;;;;;;;11.60;10.60;;;;;;;24.87;50.84;94765.66;5059174;28;20190;-67
2022/07/31 11:05:57;;;;;;;11.40;10.38;;;;;;;24.89;51.52;94754.72;5058595;28;20189;-67
2022/07/31 11:08:26;;;;;;;11.38;10.40;;;;;;;25.01;52.04;94758.75;5057916;28;20190;-67
2022/07/31 11:10:59;;;;;;;12.57;11.48;;;;;;;25.17;51.40;94753.00;5058090;28;20209;-67
2022/07/31 11:13:28;;;;;;;12.75;11.65;;;;;;;25.25;52.40;94745.06;5058321;28;20217;-67
2022/07/31 11:16:03;;;;;;;12.32;11.23;;;;;;;25.35;52.22;94752.38;5058664;28;20194;-67
2022/07/31 11:18:33;;;;;;;11.70;10.70;;;;;;;25.45;51.21;94747.56;5057892;28;20217;-66
2022/07/31 11:21:02;;;;;;;12.23;11.13;;;;;;;25.45;51.70;94744.75;5058650;28;20186;-66
2022/07/31 11:23:31;;;;;;;12.90;11.80;;;;;;;25.45;52.57;94748.38;5057612;28;20201;-66
2022/07/31 11:26:03;;;;;;;13.50;12.32;;;;;;;25.54;53.31;94746.88;5058538;28;20186;-66
2022/07/31 11:28:30;;;;;;;12.68;11.48;;;;;;;25.53;52.62;94745.28;5058341;28;20563;-66
2022/07/31 11:30:58;;;;;;;13.23;12.13;;;;;;;25.56;51.67;94742.31;5057463;28;20233;-66
2022/07/31 11:33:34;;;;;;;12.55;11.43;;;;;;;25.54;50.87;94738.41;5057824;28;20241;-66
2022/07/31 11:36:10;;;;;;;13.05;11.85;;;;;;;25.63;51.11;94727.16;5058030;28;20221;-65